createdAt,value
2023-11-18T00:01:33.466Z,97.59
2023-11-18T00:04:00.267Z,97.50
2023-11-18T00:06:26.790Z,96.83
2023-11-18T00:08:53.290Z,96.83
2023-11-18T00:11:19.775Z,97.17
2023-11-18T00:13:46.280Z,96.81
2023-11-18T00:16:12.803Z,96.82
2023-11-18T00:18:43.214Z,97.58
2023-11-18T00:21:09.823Z,97.60
2023-11-18T00:23:36.370Z,97.54
2023-11-18T00:26:03.610Z,97.06
2023-11-18T00:28:30.384Z,97.67
2023-11-18T00:30:56.903Z,98.25
2023-11-18T00:33:23.557Z,97.45
2023-11-18T00:35:50.216Z,97.18
2023-11-18T00:38:16.667Z,97.18
2023-11-18T00:40:43.136Z,97.34
2023-11-18T00:43:09.962Z,98.64
2023-11-18T00:45:36.424Z,98.65
2023-11-18T00:48:02.902Z,97.67
2023-11-18T00:50:29.481Z,97.37
2023-11-18T00:52:56.038Z,96.89
2023-11-18T00:55:22.682Z,96.79
2023-11-18T00:57:49.157Z,97.40
2023-11-18T01:00:16.542Z,97.08
2023-11-18T01:02:44.437Z,97.42
2023-11-18T01:05:11.045Z,97.31
2023-11-18T01:07:38.891Z,97.67
2023-11-18T01:10:06.876Z,96.83
2023-11-18T01:12:33.543Z,96.12
2023-11-18T01:15:00.382Z,96.76
2023-11-18T01:17:26.913Z,96.41
2023-11-18T01:19:53.428Z,96.67
2023-11-18T01:22:20.457Z,96.64
2023-11-18T01:24:46.939Z,96.37
2023-11-18T01:27:14.297Z,95.55
2023-11-18T01:29:40.844Z,95.73
2023-11-18T01:32:07.780Z,96.69
2023-11-18T01:34:34.278Z,96.69
2023-11-18T01:37:00.914Z,97.54
2023-11-18T01:39:27.360Z,96.60
2023-11-18T01:41:54.003Z,96.62
2023-11-18T01:44:20.452Z,98.49
2023-11-18T01:46:47.239Z,96.71
2023-11-18T01:49:15.627Z,96.40
2023-11-18T01:51:44.867Z,95.06
2023-11-18T01:54:13.492Z,95.90
2023-11-18T01:56:40.142Z,96.69
2023-11-18T01:59:07.071Z,96.29
2023-11-18T02:01:34.341Z,95.61
2023-11-18T02:04:01.129Z,94.99
2023-11-18T02:06:28.376Z,95.33
2023-11-18T02:08:55.047Z,96.27
2023-11-18T02:11:37.062Z,96.00
2023-11-18T02:14:05.159Z,95.40
2023-11-18T02:16:33.081Z,95.72
2023-11-18T02:19:00.968Z,96.58
2023-11-18T02:21:28.148Z,96.88
2023-11-18T02:23:54.608Z,95.84
2023-11-18T02:26:24.811Z,96.31
2023-11-18T02:28:51.610Z,95.44
2023-11-18T02:31:25.727Z,96.57
2023-11-18T02:34:06.626Z,97.45
2023-11-18T02:36:37.591Z,97.21
2023-11-18T02:39:06.945Z,98.24
2023-11-18T02:41:34.813Z,97.30
2023-11-18T02:44:03.482Z,97.77
2023-11-18T02:46:30.311Z,97.45
2023-11-18T02:48:56.789Z,97.13
2023-11-18T02:51:24.214Z,96.90
2023-11-18T02:53:50.691Z,96.38
2023-11-18T02:56:17.154Z,96.21
2023-11-18T02:58:43.832Z,96.30
2023-11-18T03:01:10.320Z,95.65
2023-11-18T03:03:37.097Z,96.16
2023-11-18T03:06:03.820Z,95.39
2023-11-18T03:08:30.287Z,95.79
2023-11-18T03:10:57.330Z,95.58
2023-11-18T03:13:23.889Z,96.98
2023-11-18T03:15:52.070Z,96.67
2023-11-18T03:18:18.649Z,95.65
2023-11-18T03:20:45.161Z,95.15
2023-11-18T03:23:11.617Z,96.28
2023-11-18T03:25:38.186Z,96.06
2023-11-18T03:28:04.730Z,96.39
2023-11-18T03:30:31.235Z,95.26
2023-11-18T03:32:57.760Z,94.93
2023-11-18T03:35:24.429Z,96.01
2023-11-18T03:37:51.362Z,95.55
2023-11-18T03:40:17.821Z,95.30
2023-11-18T03:42:44.740Z,95.43
2023-11-18T03:45:11.625Z,95.59
2023-11-18T03:47:38.902Z,95.54
2023-11-18T03:50:05.903Z,95.63
2023-11-18T03:52:32.525Z,95.86
2023-11-18T03:54:59.044Z,96.17
2023-11-18T03:57:25.488Z,96.19
2023-11-18T03:59:51.969Z,96.08
2023-11-18T04:02:18.421Z,95.71
2023-11-18T04:04:45.886Z,95.57
2023-11-18T04:07:12.416Z,95.63
2023-11-18T04:09:38.924Z,95.28
2023-11-18T04:12:05.809Z,95.83
2023-11-18T04:14:32.255Z,94.94
2023-11-18T04:16:58.817Z,95.10
2023-11-18T04:19:25.499Z,95.05
2023-11-18T04:21:51.948Z,95.11
2023-11-18T04:24:18.431Z,95.24
2023-11-18T04:26:44.908Z,95.70
2023-11-18T04:29:11.521Z,94.75
2023-11-18T04:31:38.276Z,94.00
2023-11-18T04:34:04.943Z,94.84
2023-11-18T04:36:31.497Z,94.43
2023-11-18T04:39:01.224Z,94.60
2023-11-18T04:41:27.855Z,94.24
2023-11-18T04:43:54.361Z,94.10
2023-11-18T04:46:20.889Z,94.43
2023-11-18T04:48:48.467Z,94.65
2023-11-18T04:51:15.004Z,95.84
2023-11-18T04:53:41.501Z,96.27
2023-11-18T04:56:08.455Z,95.87
2023-11-18T04:58:34.903Z,96.07
2023-11-18T05:01:01.393Z,96.45
2023-11-18T05:03:27.948Z,97.13
2023-11-18T05:05:57.745Z,96.80
2023-11-18T05:08:25.090Z,97.53
2023-11-18T05:10:51.924Z,98.90
2023-11-18T05:13:19.279Z,98.50
2023-11-18T05:15:46.662Z,98.20
2023-11-18T05:18:15.122Z,99.19
2023-11-18T05:20:42.360Z,98.87
2023-11-18T05:23:09.524Z,98.91
2023-11-18T05:25:35.996Z,100.00
2023-11-18T05:28:02.504Z,99.54
2023-11-18T05:30:28.989Z,100.00
2023-11-18T05:32:56.377Z,100.00
2023-11-18T05:35:22.876Z,100.00
2023-11-18T05:37:49.342Z,100.00
2023-11-18T05:40:15.884Z,100.00
2023-11-18T05:42:42.386Z,99.24
2023-11-18T05:45:09.240Z,100.00
2023-11-18T05:47:35.770Z,100.00
2023-11-18T05:50:02.366Z,100.00
2023-11-18T05:52:28.879Z,99.73
2023-11-18T05:54:55.719Z,99.88
2023-11-18T05:57:22.194Z,99.33
2023-11-18T05:59:49.046Z,100.00
2023-11-18T06:02:15.638Z,99.12
2023-11-18T06:04:42.123Z,98.96
2023-11-18T06:07:08.680Z,99.27
2023-11-18T06:09:35.580Z,99.59
2023-11-18T06:12:02.048Z,99.40
2023-11-18T06:14:28.777Z,98.34
2023-11-18T06:16:55.362Z,97.59
2023-11-18T06:19:21.921Z,97.69
2023-11-18T06:21:48.416Z,97.52
2023-11-18T06:24:14.896Z,97.94
2023-11-18T06:26:41.474Z,97.85
2023-11-18T06:29:08.065Z,97.66
2023-11-18T06:31:34.595Z,97.45
2023-11-18T06:34:01.111Z,98.09
2023-11-18T06:36:27.743Z,97.24
2023-11-18T06:38:55.087Z,97.80
2023-11-18T06:41:23.443Z,97.48
2023-11-18T06:43:50.837Z,97.49
2023-11-18T06:46:17.281Z,97.13
2023-11-18T06:48:43.832Z,98.13
2023-11-18T06:51:10.513Z,98.61
2023-11-18T06:53:36.974Z,98.14
2023-11-18T06:56:03.692Z,97.42
2023-11-18T06:58:30.607Z,97.74
2023-11-18T07:00:57.079Z,97.50
2023-11-18T07:03:23.766Z,98.40
2023-11-18T07:05:50.436Z,98.55
2023-11-18T07:08:16.991Z,98.84
2023-11-18T07:10:43.556Z,99.31
2023-11-18T07:13:10.058Z,99.06
2023-11-18T07:15:36.536Z,99.52
2023-11-18T07:18:03.338Z,99.68
2023-11-18T07:20:30.123Z,100.00
2023-11-18T07:22:56.638Z,99.31
2023-11-18T07:25:23.092Z,99.52
2023-11-18T07:27:49.616Z,98.91
2023-11-18T07:30:16.562Z,99.30
2023-11-18T07:32:43.057Z,99.27
2023-11-18T07:35:09.631Z,98.66
2023-11-18T07:37:37.077Z,98.52
2023-11-18T07:40:05.690Z,99.36
2023-11-18T07:42:32.868Z,99.13
2023-11-18T07:44:59.297Z,98.38
2023-11-18T07:47:25.764Z,98.07
2023-11-18T07:49:55.077Z,97.17
2023-11-18T07:52:21.601Z,97.82
2023-11-18T07:54:49.174Z,98.03
2023-11-18T07:57:16.702Z,98.55
2023-11-18T07:59:43.143Z,98.09
2023-11-18T08:02:09.659Z,98.11
2023-11-18T08:04:36.138Z,97.80
2023-11-18T08:07:02.759Z,98.26
2023-11-18T08:09:29.451Z,98.11
2023-11-18T08:11:56.923Z,98.59
2023-11-18T08:14:23.735Z,98.45
2023-11-18T08:16:50.410Z,97.17
2023-11-18T08:19:17.055Z,98.10
2023-11-18T08:21:43.511Z,97.37
2023-11-18T08:24:10.255Z,97.65
2023-11-18T08:26:36.915Z,98.17
2023-11-18T08:29:03.577Z,97.44
2023-11-18T08:31:30.199Z,97.38
2023-11-18T08:33:56.638Z,98.66
2023-11-18T08:36:24.025Z,97.87
2023-11-18T08:38:50.491Z,97.82
2023-11-18T08:41:17.023Z,96.27
2023-11-18T08:43:43.537Z,96.84
2023-11-18T08:46:12.420Z,97.02
2023-11-18T08:48:38.872Z,95.91
2023-11-18T08:51:05.850Z,96.76
2023-11-18T08:53:32.258Z,97.21
2023-11-18T08:55:58.778Z,97.79
2023-11-18T08:58:27.336Z,97.10
2023-11-18T09:00:57.490Z,96.13
2023-11-18T09:03:25.302Z,96.25
2023-11-18T09:05:56.001Z,95.92
2023-11-18T09:08:22.438Z,97.31
2023-11-18T09:10:48.897Z,96.40
2023-11-18T09:13:15.308Z,96.80
2023-11-18T09:15:41.779Z,97.09
2023-11-18T09:18:08.406Z,97.33
2023-11-18T09:20:34.908Z,97.00
2023-11-18T09:23:03.827Z,97.21
2023-11-18T09:25:30.637Z,96.31
2023-11-18T09:27:57.097Z,97.26
2023-11-18T09:30:23.592Z,97.08
2023-11-18T09:32:50.164Z,96.63
2023-11-18T09:35:16.668Z,97.08
2023-11-18T09:37:43.206Z,96.79
2023-11-18T09:40:14.912Z,96.53
2023-11-18T09:42:41.960Z,97.55
2023-11-18T09:45:08.712Z,97.13
2023-11-18T09:47:42.912Z,96.83
2023-11-18T09:50:11.879Z,96.51
2023-11-18T09:52:48.181Z,96.80
2023-11-18T09:55:34.077Z,97.04
2023-11-18T09:58:05.318Z,96.48
2023-11-18T10:00:32.126Z,98.05
2023-11-18T10:02:59.027Z,97.56
2023-11-18T10:05:28.720Z,98.09
2023-11-18T10:07:55.604Z,97.38
2023-11-18T10:10:22.385Z,97.46
2023-11-18T10:12:51.083Z,97.45
2023-11-18T10:15:19.058Z,98.05
2023-11-18T10:17:46.626Z,97.23
2023-11-18T10:20:13.181Z,97.83
2023-11-18T10:22:39.636Z,98.21
2023-11-18T10:25:06.407Z,97.58
2023-11-18T10:27:33.160Z,97.57
2023-11-18T10:30:04.134Z,97.43
2023-11-18T10:32:31.302Z,97.00
2023-11-18T10:34:58.522Z,96.95
2023-11-18T10:37:28.901Z,96.04
2023-11-18T10:39:55.350Z,96.00
2023-11-18T10:42:22.267Z,96.00
2023-11-18T10:44:58.874Z,96.01
2023-11-18T10:47:29.278Z,95.30
2023-11-18T10:49:56.239Z,95.84
2023-11-18T10:52:24.108Z,95.23
2023-11-18T10:54:54.084Z,95.57
2023-11-18T10:57:21.233Z,96.40
2023-11-18T11:00:05.606Z,96.16
2023-11-18T11:02:32.293Z,96.13
2023-11-18T11:04:58.748Z,96.04
2023-11-18T11:07:27.159Z,96.77
2023-11-18T11:09:53.609Z,97.37
2023-11-18T11:12:20.726Z,97.23
2023-11-18T11:15:00.336Z,97.33
2023-11-18T11:17:28.914Z,96.64
2023-11-18T11:20:03.865Z,97.23
2023-11-18T11:22:39.609Z,96.83
2023-11-18T11:25:34.113Z,96.55
2023-11-18T11:28:11.686Z,97.25
2023-11-18T11:30:56.203Z,96.90
2023-11-18T11:33:30.181Z,96.33
2023-11-18T11:35:57.700Z,96.73
2023-11-18T11:38:25.823Z,96.82
2023-11-18T11:40:52.824Z,96.51
2023-11-18T11:43:19.313Z,96.71
2023-11-18T11:45:46.182Z,95.86
2023-11-18T11:48:13.093Z,95.14
2023-11-18T11:50:54.568Z,95.01
2023-11-18T11:53:27.882Z,95.82
2023-11-18T11:55:55.875Z,94.71
2023-11-18T11:58:32.461Z,95.40
2023-11-18T12:01:02.902Z,95.29
2023-11-18T12:03:32.091Z,95.57
2023-11-18T12:05:58.729Z,95.38
2023-11-18T12:08:25.236Z,95.22
2023-11-18T12:10:54.614Z,95.53
2023-11-18T12:13:21.377Z,94.66
2023-11-18T12:15:56.203Z,94.62
2023-11-18T12:18:23.198Z,94.95
2023-11-18T12:20:49.861Z,94.59
2023-11-18T12:23:16.978Z,94.79
2023-11-18T12:25:46.850Z,94.42
2023-11-18T12:28:17.844Z,94.33
2023-11-18T12:30:45.765Z,95.16
2023-11-18T12:33:12.368Z,94.16
2023-11-18T12:35:47.053Z,93.83
2023-11-18T12:38:51.231Z,94.14
2023-11-18T12:41:37.496Z,95.02
2023-11-18T12:44:22.119Z,94.53
2023-11-18T12:46:53.929Z,94.14
2023-11-18T12:49:23.720Z,94.16
2023-11-18T12:51:55.114Z,94.21
2023-11-18T12:54:25.124Z,94.51
2023-11-18T12:56:52.697Z,94.40
2023-11-18T12:59:19.298Z,93.69
2023-11-18T13:01:48.196Z,95.04
2023-11-18T13:04:15.336Z,94.50
2023-11-18T13:06:41.999Z,95.05
2023-11-18T13:09:08.866Z,95.78
2023-11-18T13:11:35.356Z,95.58
2023-11-18T13:14:02.705Z,96.10
2023-11-18T13:16:29.497Z,96.34
2023-11-18T13:18:56.404Z,96.33
2023-11-18T13:21:22.999Z,95.96
2023-11-18T13:23:52.502Z,95.83
2023-11-18T13:26:20.641Z,96.86
2023-11-18T13:28:50.021Z,96.58
2023-11-18T13:31:22.958Z,96.48
2023-11-18T13:33:59.538Z,96.16
2023-11-18T13:36:33.342Z,96.51
2023-11-18T13:38:59.871Z,96.48
2023-11-18T13:41:32.566Z,97.09
2023-11-18T13:44:00.531Z,96.75
2023-11-18T13:46:28.974Z,96.57
2023-11-18T13:48:55.476Z,96.92
2023-11-18T13:51:22.498Z,96.45
2023-11-18T13:53:49.043Z,97.38
2023-11-18T13:56:15.829Z,96.74
2023-11-18T13:58:45.462Z,96.06
2023-11-18T14:01:12.543Z,96.25
2023-11-18T14:03:41.028Z,97.19
2023-11-18T14:06:08.737Z,96.66
2023-11-18T14:08:35.535Z,97.26
2023-11-18T14:11:03.697Z,97.14
2023-11-18T14:13:31.432Z,96.03
2023-11-18T14:16:00.946Z,96.34
2023-11-18T14:18:27.861Z,97.27
2023-11-18T14:20:54.923Z,97.08
2023-11-18T14:23:21.782Z,97.43
2023-11-18T14:25:48.872Z,97.19
2023-11-18T14:28:15.999Z,96.73
2023-11-18T14:30:42.491Z,96.37
2023-11-18T14:33:09.216Z,96.32
2023-11-18T14:35:36.054Z,95.59
2023-11-18T14:38:03.501Z,96.37
2023-11-18T14:40:30.219Z,96.40
2023-11-18T14:42:56.806Z,97.05
2023-11-18T14:45:23.705Z,96.83
2023-11-18T14:47:50.325Z,97.03
2023-11-18T14:50:23.899Z,96.65
2023-11-18T14:52:51.752Z,96.93
2023-11-18T14:55:18.943Z,97.68
2023-11-18T14:57:45.954Z,98.14
2023-11-18T15:00:13.511Z,97.64
2023-11-18T15:02:40.220Z,98.15
2023-11-18T15:05:07.117Z,97.52
2023-11-18T15:07:33.688Z,98.03
2023-11-18T15:10:00.212Z,97.88
2023-11-18T15:12:26.829Z,98.03
2023-11-18T15:14:53.345Z,98.07
2023-11-18T15:17:19.774Z,98.10
2023-11-18T15:19:46.205Z,98.22
2023-11-18T15:22:12.715Z,98.43
2023-11-18T15:24:39.209Z,97.24
2023-11-18T15:27:05.732Z,97.36
2023-11-18T15:29:32.363Z,98.27
2023-11-18T15:31:58.982Z,98.28
2023-11-18T15:34:25.480Z,98.17
2023-11-18T15:36:52.538Z,98.20
2023-11-18T15:39:19.033Z,97.75
2023-11-18T15:41:45.455Z,98.16
2023-11-18T15:44:11.932Z,98.78
2023-11-18T15:46:38.832Z,98.03
2023-11-18T15:49:05.334Z,98.35
2023-11-18T15:51:31.747Z,97.72
2023-11-18T15:53:58.249Z,98.06
2023-11-18T15:56:24.689Z,97.45
2023-11-18T15:58:51.779Z,98.12
2023-11-18T16:01:18.308Z,97.44
2023-11-18T16:03:44.857Z,97.48
2023-11-18T16:06:11.311Z,98.19
2023-11-18T16:08:38.262Z,98.20
2023-11-18T16:11:05.353Z,97.99
2023-11-18T16:13:31.865Z,99.24
2023-11-18T16:15:58.346Z,98.71
2023-11-18T16:18:24.866Z,98.48
2023-11-18T16:20:51.477Z,98.05
2023-11-18T16:23:18.047Z,98.13
2023-11-18T16:25:44.619Z,98.36
2023-11-18T16:28:11.260Z,99.14
2023-11-18T16:30:37.743Z,98.75
2023-11-18T16:33:04.241Z,98.68
2023-11-18T16:35:31.299Z,99.73
2023-11-18T16:37:58.298Z,100.00
2023-11-18T16:40:25.320Z,98.34
2023-11-18T16:42:53.644Z,98.04
2023-11-18T16:45:20.340Z,98.63
2023-11-18T16:47:46.959Z,98.30
2023-11-18T16:50:15.181Z,98.06
2023-11-18T16:52:41.825Z,98.03
2023-11-18T16:55:10.214Z,97.80
2023-11-18T16:57:37.998Z,97.08
2023-11-18T17:00:12.303Z,98.34
2023-11-18T17:02:38.885Z,98.19
2023-11-18T17:05:05.714Z,99.18
2023-11-18T17:07:32.188Z,99.37
2023-11-18T17:09:58.631Z,99.40
2023-11-18T17:12:25.139Z,99.79
2023-11-18T17:14:51.610Z,99.54
2023-11-18T17:17:18.129Z,99.10
2023-11-18T17:19:44.672Z,98.60
2023-11-18T17:22:11.229Z,98.61
2023-11-18T17:24:40.615Z,99.20
2023-11-18T17:27:07.137Z,99.03
2023-11-18T17:29:34.340Z,99.41
2023-11-18T17:32:00.837Z,99.87
2023-11-18T17:34:27.347Z,99.46
2023-11-18T17:36:56.395Z,99.40
2023-11-18T17:39:23.048Z,99.86
2023-11-18T17:41:49.701Z,100.00
2023-11-18T17:44:16.216Z,100.00
2023-11-18T17:46:42.697Z,100.00
2023-11-18T17:49:09.200Z,100.00
2023-11-18T17:51:35.831Z,100.00
2023-11-18T17:54:02.404Z,100.00
2023-11-18T17:56:29.002Z,100.00
2023-11-18T17:58:55.482Z,100.00
2023-11-18T18:01:24.523Z,99.75
2023-11-18T18:03:51.127Z,100.00
2023-11-18T18:06:17.650Z,100.00
2023-11-18T18:08:44.095Z,100.00
2023-11-18T18:11:10.576Z,100.00
2023-11-18T18:13:37.072Z,100.00
2023-11-18T18:16:04.035Z,100.00
2023-11-18T18:18:30.869Z,100.00
2023-11-18T18:20:57.336Z,99.90
2023-11-18T18:23:23.808Z,100.00
2023-11-18T18:25:50.605Z,100.00
2023-11-18T18:28:17.049Z,99.97
2023-11-18T18:30:43.668Z,99.59
2023-11-18T18:33:10.194Z,100.00
2023-11-18T18:35:36.790Z,99.52
2023-11-18T18:38:03.637Z,99.48
2023-11-18T18:40:32.603Z,99.83
2023-11-18T18:43:00.188Z,97.72
2023-11-18T18:45:26.659Z,100.00
2023-11-18T18:47:53.565Z,100.00
2023-11-18T18:50:20.835Z,100.00
2023-11-18T18:52:47.339Z,100.00
2023-11-18T18:55:13.950Z,100.00
2023-11-18T18:57:40.872Z,100.00
2023-11-18T19:00:08.180Z,100.00
2023-11-18T19:02:34.838Z,100.00
2023-11-18T19:05:01.603Z,100.00
2023-11-18T19:07:28.052Z,100.00
2023-11-18T19:09:54.540Z,100.00
2023-11-18T19:12:21.013Z,100.00
2023-11-18T19:14:47.472Z,100.00
2023-11-18T19:17:13.944Z,100.00
2023-11-18T19:19:40.437Z,100.00
2023-11-18T19:22:06.962Z,100.00
2023-11-18T19:24:33.657Z,99.85
2023-11-18T19:27:00.255Z,99.62
2023-11-18T19:29:27.192Z,100.00
2023-11-18T19:31:53.686Z,99.76
2023-11-18T19:34:20.294Z,98.93
2023-11-18T19:36:46.767Z,98.83
2023-11-18T19:39:13.541Z,98.30
2023-11-18T19:41:40.055Z,98.55
2023-11-18T19:44:06.728Z,98.88
2023-11-18T19:46:33.233Z,98.68
2023-11-18T19:49:00.467Z,99.19
2023-11-18T19:51:26.978Z,98.99
2023-11-18T19:53:53.539Z,98.87
2023-11-18T19:56:20.110Z,98.74
2023-11-18T19:58:46.641Z,98.50
2023-11-18T20:01:19.285Z,98.13
2023-11-18T20:03:48.938Z,98.51
2023-11-18T20:06:15.475Z,98.06
2023-11-18T20:08:42.745Z,97.85
2023-11-18T20:11:09.419Z,97.69
2023-11-18T20:13:36.421Z,97.99
2023-11-18T20:16:03.069Z,98.05
2023-11-18T20:18:29.588Z,97.81
2023-11-18T20:20:56.085Z,97.61
2023-11-18T20:23:22.684Z,97.11
2023-11-18T20:25:49.466Z,97.28
2023-11-18T20:28:15.954Z,96.80
2023-11-18T20:30:42.511Z,96.67
2023-11-18T20:33:09.011Z,96.44
2023-11-18T20:35:35.751Z,96.01
2023-11-18T20:38:02.452Z,95.97
2023-11-18T20:40:29.732Z,95.27
2023-11-18T20:42:56.221Z,95.74
2023-11-18T20:45:22.809Z,95.02
2023-11-18T20:47:49.724Z,95.41
2023-11-18T20:50:16.558Z,95.52
2023-11-18T20:52:43.386Z,95.21
2023-11-18T20:55:10.540Z,95.60
2023-11-18T20:57:37.815Z,95.99
2023-11-18T21:00:09.087Z,95.55
2023-11-18T21:02:43.328Z,95.15
2023-11-18T21:05:12.040Z,94.80
2023-11-18T21:07:38.651Z,95.17
2023-11-18T21:10:05.636Z,95.60
2023-11-18T21:12:32.262Z,95.36
2023-11-18T21:14:58.774Z,95.65
2023-11-18T21:17:25.829Z,95.43
2023-11-18T21:19:53.341Z,95.06
2023-11-18T21:22:20.705Z,95.03
2023-11-18T21:24:47.542Z,95.04
2023-11-18T21:27:14.004Z,95.04
2023-11-18T21:29:40.458Z,95.20
2023-11-18T21:32:07.344Z,95.01
2023-11-18T21:34:33.976Z,94.74
2023-11-18T21:37:00.419Z,94.67
2023-11-18T21:39:27.331Z,94.19
2023-11-18T21:41:53.832Z,94.51
2023-11-18T21:44:20.364Z,94.12
2023-11-18T21:46:47.328Z,94.27
2023-11-18T21:49:13.792Z,94.33
2023-11-18T21:51:40.292Z,94.26
2023-11-18T21:54:06.876Z,94.47
2023-11-18T21:56:36.339Z,94.10
2023-11-18T21:59:03.188Z,94.51
2023-11-18T22:01:30.900Z,94.79
2023-11-18T22:03:57.556Z,94.48
2023-11-18T22:06:24.506Z,94.79
2023-11-18T22:08:51.763Z,95.10
2023-11-18T22:11:18.278Z,95.17
2023-11-18T22:13:44.996Z,94.92
2023-11-18T22:16:11.511Z,94.98
2023-11-18T22:18:41.315Z,94.90
2023-11-18T22:21:20.418Z,94.87
2023-11-18T22:23:47.088Z,95.43
2023-11-18T22:26:13.582Z,94.85
2023-11-18T22:28:40.236Z,94.60
2023-11-18T22:31:06.895Z,94.46
2023-11-18T22:33:33.609Z,94.75
2023-11-18T22:36:00.280Z,94.48
2023-11-18T22:38:26.842Z,94.24
2023-11-18T22:40:56.039Z,94.60
2023-11-18T22:43:22.526Z,94.03
2023-11-18T22:45:49.184Z,94.39
2023-11-18T22:48:16.094Z,94.28
2023-11-18T22:50:42.839Z,94.03
2023-11-18T22:53:10.553Z,94.25
2023-11-18T22:55:37.221Z,94.35
2023-11-18T22:58:03.802Z,94.16
2023-11-18T23:00:30.273Z,94.64
2023-11-18T23:02:56.967Z,94.43
2023-11-18T23:05:23.715Z,94.77
2023-11-18T23:07:50.192Z,94.94
2023-11-18T23:10:17.312Z,95.22
2023-11-18T23:12:43.941Z,94.90
2023-11-18T23:15:10.565Z,94.99
2023-11-18T23:17:37.235Z,94.89
2023-11-18T23:20:04.222Z,95.17
2023-11-18T23:22:32.057Z,95.02
2023-11-18T23:24:58.681Z,94.98
2023-11-18T23:27:25.210Z,95.28
2023-11-18T23:29:51.775Z,95.46
2023-11-18T23:32:18.224Z,95.23
2023-11-18T23:34:44.714Z,95.24
2023-11-18T23:37:11.236Z,95.35
2023-11-18T23:39:37.947Z,95.31
2023-11-18T23:42:05.508Z,94.98
2023-11-18T23:44:34.336Z,95.18
2023-11-18T23:47:01.026Z,95.04
2023-11-18T23:49:27.921Z,94.94
2023-11-18T23:51:55.803Z,95.22
2023-11-18T23:54:22.619Z,95.58
2023-11-18T23:56:49.092Z,94.99
2023-11-18T23:59:15.568Z,95.07
